createdAt,value
2022-09-06T00:02:23.492Z,52.92
2022-09-06T00:07:25.144Z,53.08
2022-09-06T00:12:26.560Z,53.07
2022-09-06T00:17:27.977Z,53.03
2022-09-06T00:22:29.406Z,53.19
2022-09-06T00:27:30.965Z,53.04
2022-09-06T00:32:32.485Z,52.95
2022-09-06T00:37:33.923Z,52.85
2022-09-06T00:42:35.356Z,52.89
2022-09-06T00:47:36.876Z,52.53
2022-09-06T00:52:38.292Z,52.72
2022-09-06T00:57:39.722Z,52.74
2022-09-06T01:02:41.439Z,52.51
2022-09-06T01:08:06.121Z,52.86
2022-09-06T01:13:31.452Z,52.69
2022-09-06T01:18:38.790Z,52.83
2022-09-06T01:23:59.013Z,52.42
2022-09-06T01:29:00.441Z,52.41
2022-09-06T01:34:07.960Z,52.41
2022-09-06T01:39:14.351Z,52.00
2022-09-06T01:44:15.785Z,51.66
2022-09-06T01:49:29.188Z,51.86
2022-09-06T01:54:50.500Z,51.52
2022-09-06T02:00:11.054Z,51.80
2022-09-06T02:05:39.972Z,51.96
2022-09-06T02:10:45.288Z,51.57
2022-09-06T02:15:50.793Z,51.71
2022-09-06T02:20:54.028Z,51.20
2022-09-06T02:26:05.484Z,51.39
2022-09-06T02:31:37.843Z,51.04
2022-09-06T02:36:39.337Z,51.10
2022-09-06T02:41:41.225Z,51.37
2022-09-06T02:46:42.775Z,50.73
2022-09-06T02:51:44.177Z,50.88
2022-09-06T02:56:48.000Z,50.67
2022-09-06T03:01:53.101Z,50.59
2022-09-06T03:06:54.856Z,50.34
2022-09-06T03:11:56.284Z,50.66
2022-09-06T03:16:57.832Z,50.30
2022-09-06T03:21:59.304Z,50.30
2022-09-06T03:27:00.757Z,50.19
2022-09-06T03:32:02.446Z,50.14
2022-09-06T03:37:03.929Z,50.16
2022-09-06T03:42:05.425Z,50.24
2022-09-06T03:47:06.988Z,50.26
2022-09-06T03:52:08.412Z,50.00
2022-09-06T03:57:09.889Z,49.88
2022-09-06T04:02:11.460Z,49.71
2022-09-06T04:07:13.053Z,50.15
2022-09-06T04:12:14.494Z,50.03
2022-09-06T04:17:16.002Z,49.67
2022-09-06T04:22:17.438Z,49.92
2022-09-06T04:27:19.004Z,49.71
2022-09-06T04:32:20.404Z,49.86
2022-09-06T04:37:21.839Z,49.89
2022-09-06T04:42:23.397Z,49.83
2022-09-06T04:47:24.793Z,49.74
2022-09-06T04:52:30.106Z,49.31
2022-09-06T04:57:31.727Z,49.58
2022-09-06T05:02:33.187Z,49.24
2022-09-06T05:07:34.761Z,49.48
2022-09-06T05:12:38.809Z,49.25
2022-09-06T05:17:42.332Z,49.29
2022-09-06T05:22:43.821Z,49.17
2022-09-06T05:27:45.244Z,49.29
2022-09-06T05:32:46.664Z,49.22
2022-09-06T05:37:48.173Z,49.30
2022-09-06T05:42:49.653Z,49.17
2022-09-06T05:47:51.081Z,49.00
2022-09-06T05:52:53.712Z,48.96
2022-09-06T05:57:55.149Z,49.21
2022-09-06T06:02:56.601Z,49.08
2022-09-06T06:07:59.464Z,49.45
2022-09-06T06:13:00.905Z,48.88
2022-09-06T06:18:02.309Z,49.10
2022-09-06T06:23:03.712Z,49.25
2022-09-06T06:28:05.192Z,49.10
2022-09-06T06:33:06.621Z,49.12
2022-09-06T06:38:08.084Z,48.80
2022-09-06T06:43:11.349Z,48.94
2022-09-06T06:48:12.769Z,49.06
2022-09-06T06:53:14.209Z,48.98
2022-09-06T06:58:16.732Z,49.18
2022-09-06T07:03:18.324Z,48.94
2022-09-06T07:08:19.780Z,48.92
2022-09-06T07:13:21.380Z,48.57
2022-09-06T07:18:22.868Z,48.83
2022-09-06T07:28:46.853Z,49.54
2022-09-06T07:33:50.561Z,49.89
2022-09-06T07:38:54.215Z,50.19
2022-09-06T07:43:55.800Z,50.03
2022-09-06T07:48:57.256Z,50.04
2022-09-06T07:54:19.302Z,50.04
2022-09-06T07:59:20.196Z,50.07
2022-09-06T08:04:21.685Z,49.73
2022-09-06T08:09:23.104Z,49.67
2022-09-06T08:14:24.553Z,49.52
2022-09-06T08:19:25.977Z,49.66
2022-09-06T08:24:27.454Z,49.43
2022-09-06T08:29:28.977Z,49.38
2022-09-06T08:34:30.428Z,49.62
2022-09-06T08:39:31.981Z,49.47
2022-09-06T08:44:57.554Z,49.49
2022-09-06T08:50:08.777Z,50.01
2022-09-06T08:55:28.426Z,49.87
2022-09-06T09:00:29.869Z,49.80
2022-09-06T09:05:33.200Z,49.60
2022-09-06T09:10:42.272Z,50.04
2022-09-06T09:15:43.712Z,49.79
2022-09-06T09:20:45.193Z,50.11
2022-09-06T09:25:46.663Z,50.05
2022-09-06T09:30:52.940Z,49.80
2022-09-06T09:35:55.389Z,50.06
2022-09-06T09:41:06.552Z,49.84
2022-09-06T09:46:15.574Z,49.49
2022-09-06T09:51:26.254Z,49.75
2022-09-06T09:56:29.884Z,49.37
2022-09-06T10:01:31.736Z,48.99
2022-09-06T10:11:56.592Z,47.95
2022-09-06T10:16:58.684Z,48.16
2022-09-06T10:22:03.849Z,47.96
2022-09-06T10:27:06.720Z,48.28
2022-09-06T10:32:39.141Z,48.08
2022-09-06T10:37:42.577Z,47.66
2022-09-06T10:42:52.596Z,47.79
2022-09-06T10:48:35.485Z,48.27
2022-09-06T10:53:52.009Z,48.02
2022-09-06T11:10:15.269Z,47.40
2022-09-06T11:15:16.983Z,48.51
2022-09-06T11:20:31.820Z,47.94
2022-09-06T11:25:46.404Z,48.98
2022-09-06T11:30:48.264Z,48.93
2022-09-06T11:35:49.814Z,48.90
2022-09-06T11:41:01.236Z,48.84
2022-09-06T11:46:02.698Z,48.93
2022-09-06T11:51:10.614Z,48.83
2022-09-06T11:56:17.423Z,48.71
2022-09-06T12:01:20.606Z,49.49
2022-09-06T12:06:26.943Z,49.68
2022-09-06T12:11:42.340Z,49.46
2022-09-06T12:16:56.056Z,49.77
2022-09-06T12:21:57.509Z,49.33
2022-09-06T12:27:18.773Z,49.39
2022-09-06T12:32:22.433Z,49.23
2022-09-06T12:37:37.216Z,49.77
2022-09-06T12:42:38.701Z,50.02
2022-09-06T12:47:40.216Z,49.47
2022-09-06T12:52:52.420Z,49.41
2022-09-06T12:57:55.605Z,49.31
2022-09-06T13:03:00.010Z,48.69
2022-09-06T13:08:02.407Z,48.82
2022-09-06T13:13:05.024Z,49.00
2022-09-06T13:18:35.428Z,48.74
2022-09-06T13:23:44.586Z,49.09
2022-09-06T13:28:46.133Z,49.64
2022-09-06T13:33:57.290Z,49.48
2022-09-06T13:38:59.973Z,49.50
2022-09-06T13:44:07.702Z,49.60
2022-09-06T13:49:09.138Z,49.96
2022-09-06T13:54:12.145Z,50.32
2022-09-06T13:59:13.588Z,50.51
2022-09-06T14:04:16.161Z,50.31
2022-09-06T14:09:17.640Z,51.04
2022-09-06T14:14:19.364Z,51.46
2022-09-06T14:19:20.820Z,51.60
2022-09-06T14:24:22.320Z,52.12
2022-09-06T14:29:23.773Z,52.58
2022-09-06T14:34:25.676Z,52.58
2022-09-06T14:39:27.508Z,53.16
2022-09-06T14:44:29.004Z,53.30
2022-09-06T14:49:30.417Z,53.57
2022-09-06T14:54:31.896Z,53.55
2022-09-06T14:59:33.332Z,53.91
2022-09-06T15:04:34.805Z,54.29
2022-09-06T15:09:36.902Z,53.95
2022-09-06T15:14:38.388Z,54.55
2022-09-06T15:19:39.800Z,54.62
2022-09-06T15:24:41.201Z,54.79
2022-09-06T15:29:42.606Z,54.91
2022-09-06T15:34:44.015Z,54.71
2022-09-06T15:39:45.457Z,55.13
2022-09-06T15:44:46.881Z,55.49
2022-09-06T15:49:48.287Z,55.22
2022-09-06T15:55:08.300Z,54.98
2022-09-06T16:00:11.617Z,55.16
2022-09-06T16:05:13.026Z,55.61
2022-09-06T16:10:15.213Z,55.37
2022-09-06T16:15:16.640Z,55.94
2022-09-06T16:20:18.040Z,55.78
2022-09-06T16:25:19.446Z,55.95
2022-09-06T16:30:20.896Z,56.21
2022-09-06T16:35:22.298Z,55.84
2022-09-06T16:40:23.697Z,56.39
2022-09-06T16:45:25.100Z,56.29
2022-09-06T16:50:26.605Z,56.80
2022-09-06T16:55:28.020Z,56.87
2022-09-06T17:00:29.572Z,56.60
2022-09-06T17:05:34.357Z,56.93
2022-09-06T17:10:38.442Z,56.62
2022-09-06T17:15:58.177Z,56.96
2022-09-06T17:21:04.979Z,57.23
2022-09-06T17:26:06.524Z,57.25
2022-09-06T17:31:09.008Z,57.70
2022-09-06T17:36:21.957Z,57.35
2022-09-06T17:41:24.690Z,58.09
2022-09-06T17:46:28.904Z,58.15
2022-09-06T17:51:30.949Z,57.71
2022-09-06T17:56:32.777Z,57.61
2022-09-06T18:01:36.272Z,58.14
2022-09-06T18:06:40.129Z,58.53
2022-09-06T18:11:41.534Z,58.10
2022-09-06T18:16:45.085Z,58.39
2022-09-06T18:21:46.670Z,58.05
2022-09-06T18:26:48.992Z,58.67
2022-09-06T18:31:53.342Z,58.42
2022-09-06T18:36:55.012Z,57.96
2022-09-06T18:42:03.784Z,58.47
2022-09-06T18:47:06.604Z,58.53
2022-09-06T18:52:08.038Z,58.67
2022-09-06T18:57:09.472Z,58.63
2022-09-06T19:02:11.115Z,59.00
2022-09-06T19:07:12.580Z,58.56
2022-09-06T19:12:14.453Z,58.38
2022-09-06T19:17:15.852Z,58.35
2022-09-06T19:22:17.505Z,58.51
2022-09-06T19:27:18.905Z,58.39
2022-09-06T19:32:22.145Z,58.29
2022-09-06T19:37:24.458Z,58.25
2022-09-06T19:42:25.896Z,58.74
2022-09-06T19:47:27.301Z,58.38
2022-09-06T19:52:28.774Z,58.30
2022-09-06T19:57:30.802Z,58.55
2022-09-06T20:02:32.223Z,57.52
2022-09-06T20:07:33.673Z,58.21
2022-09-06T20:12:35.927Z,58.21
2022-09-06T20:17:38.044Z,57.85
2022-09-06T20:22:39.489Z,57.72
2022-09-06T20:27:44.367Z,57.28
2022-09-06T20:32:46.098Z,57.88
2022-09-06T20:37:47.581Z,57.67
2022-09-06T20:42:48.988Z,57.26
2022-09-06T20:47:50.505Z,57.45
2022-09-06T20:52:53.001Z,57.15
2022-09-06T20:57:55.025Z,57.08
2022-09-06T21:02:57.069Z,57.45
2022-09-06T21:07:58.497Z,56.77
2022-09-06T21:13:00.272Z,57.38
2022-09-06T21:18:02.189Z,57.09
2022-09-06T21:23:03.653Z,57.14
2022-09-06T21:28:05.061Z,56.99
2022-09-06T21:33:06.469Z,56.92
2022-09-06T21:38:08.420Z,57.21
2022-09-06T21:43:09.821Z,57.16
2022-09-06T21:48:12.325Z,57.32
2022-09-06T21:53:13.973Z,57.02
2022-09-06T21:58:16.253Z,57.50
2022-09-06T22:03:17.809Z,57.87
2022-09-06T22:08:19.412Z,57.37
2022-09-06T22:13:20.819Z,57.18
2022-09-06T22:18:22.220Z,57.22
2022-09-06T22:23:23.632Z,57.10
2022-09-06T22:28:25.035Z,57.02
2022-09-06T22:33:26.469Z,56.88
2022-09-06T22:38:28.427Z,56.72
2022-09-06T22:43:29.840Z,56.50
2022-09-06T22:48:32.289Z,56.57
2022-09-06T22:53:33.781Z,56.85
2022-09-06T22:58:35.431Z,56.62
2022-09-06T23:03:37.027Z,56.68
2022-09-06T23:08:39.257Z,56.34
2022-09-06T23:13:43.671Z,56.15
2022-09-06T23:18:45.869Z,55.86
2022-09-06T23:23:47.896Z,56.06
2022-09-06T23:28:51.543Z,55.65
2022-09-06T23:33:53.740Z,55.97
2022-09-06T23:38:55.874Z,55.90
2022-09-06T23:43:57.347Z,55.63
2022-09-06T23:48:58.751Z,55.57
2022-09-06T23:54:00.713Z,55.41
2022-09-06T23:59:02.116Z,55.98
